sensor_id;sensor_type;location;lat;lon;timestamp;P1;durP1;ratioP1;P2;durP2;ratioP2
22752;SDS011;11543;43.144;24.684;2023-07-13T12:25:56;9.05;;;3.00;;
22752;SDS011;11543;43.144;24.684;2023-07-13T12:28:30;7.68;;;3.10;;
22752;SDS011;11543;43.144;24.684;2023-07-13T12:31:22;6.72;;;3.25;;
22752;SDS011;11543;43.144;24.684;2023-07-13T12:34:01;8.35;;;2.95;;
22752;SDS011;11543;43.144;24.684;2023-07-13T12:36:35;5.78;;;2.67;;
22752;SDS011;11543;43.144;24.684;2023-07-13T12:39:11;6.40;;;3.28;;
22752;SDS011;11543;43.144;24.684;2023-07-13T12:45:17;8.70;;;3.30;;
22752;SDS011;11543;43.144;24.684;2023-07-13T12:47:40;6.25;;;3.40;;
22752;SDS011;11543;43.144;24.684;2023-07-13T12:53:02;7.35;;;2.90;;
22752;SDS011;11543;43.144;24.684;2023-07-13T12:55:54;7.75;;;3.30;;
22752;SDS011;11543;43.144;24.684;2023-07-13T12:58:28;8.07;;;3.28;;
22752;SDS011;11543;43.144;24.684;2023-07-13T13:00:54;6.60;;;3.17;;
22752;SDS011;11543;43.144;24.684;2023-07-13T13:04:08;9.02;;;3.03;;
22752;SDS011;11543;43.144;24.684;2023-07-13T13:08:41;9.10;;;3.22;;
22752;SDS011;11543;43.144;24.684;2023-07-13T13:14:08;7.47;;;3.15;;
22752;SDS011;11543;43.144;24.684;2023-07-13T13:16:58;9.65;;;3.20;;
22752;SDS011;11543;43.144;24.684;2023-07-13T13:19:27;8.65;;;3.53;;
22752;SDS011;11543;43.144;24.684;2023-07-13T13:21:54;8.18;;;3.00;;
22752;SDS011;11543;43.144;24.684;2023-07-13T13:31:16;6.63;;;3.20;;
22752;SDS011;11543;43.144;24.684;2023-07-13T13:33:45;9.25;;;3.22;;
22752;SDS011;11543;43.144;24.684;2023-07-13T13:36:16;5.75;;;3.13;;
22752;SDS011;11543;43.144;24.684;2023-07-13T13:38:55;6.68;;;3.00;;
22752;SDS011;11543;43.144;24.684;2023-07-13T13:41:37;8.13;;;3.42;;
22752;SDS011;11543;43.144;24.684;2023-07-13T13:54:57;10.02;;;2.97;;
22752;SDS011;11543;43.144;24.684;2023-07-13T14:11:30;8.02;;;2.88;;
22752;SDS011;11543;43.144;24.684;2023-07-13T14:20:54;7.07;;;3.00;;
22752;SDS011;11543;43.144;24.684;2023-07-13T14:23:27;10.27;;;3.40;;
22752;SDS011;11543;43.144;24.684;2023-07-13T14:25:53;8.95;;;3.08;;
22752;SDS011;11543;43.144;24.684;2023-07-13T14:30:58;11.65;;;3.70;;
22752;SDS011;11543;43.144;24.684;2023-07-13T14:33:45;11.75;;;3.40;;
22752;SDS011;11543;43.144;24.684;2023-07-13T14:41:49;11.20;;;3.33;;
22752;SDS011;11543;43.144;24.684;2023-07-13T14:44:27;8.25;;;3.05;;
22752;SDS011;11543;43.144;24.684;2023-07-13T14:46:58;9.00;;;3.15;;
22752;SDS011;11543;43.144;24.684;2023-07-13T14:49:42;14.05;;;3.40;;
22752;SDS011;11543;43.144;24.684;2023-07-13T14:54:42;12.18;;;3.78;;
22752;SDS011;11543;43.144;24.684;2023-07-13T14:57:17;12.32;;;3.42;;
22752;SDS011;11543;43.144;24.684;2023-07-13T14:59:44;11.50;;;3.33;;
22752;SDS011;11543;43.144;24.684;2023-07-13T15:02:15;14.73;;;3.65;;
22752;SDS011;11543;43.144;24.684;2023-07-13T15:04:45;8.48;;;3.40;;
22752;SDS011;11543;43.144;24.684;2023-07-13T15:07:11;10.73;;;3.78;;
22752;SDS011;11543;43.144;24.684;2023-07-13T15:09:38;10.95;;;3.75;;
22752;SDS011;11543;43.144;24.684;2023-07-13T20:13:11;15.48;;;8.60;;
22752;SDS011;11543;43.144;24.684;2023-07-13T20:15:47;14.82;;;6.93;;
22752;SDS011;11543;43.144;24.684;2023-07-13T20:18:13;14.00;;;7.88;;
22752;SDS011;11543;43.144;24.684;2023-07-13T20:20:41;12.20;;;6.55;;
22752;SDS011;11543;43.144;24.684;2023-07-13T20:23:54;11.15;;;6.05;;
22752;SDS011;11543;43.144;24.684;2023-07-13T23:42:12;10.52;;;6.13;;
